sensor_id;sensor_type;location;lat;lon;timestamp;P1;durP1;ratioP1;P2;durP2;ratioP2
49678;SDS011;35570;48.218;16.326;2023-06-24T00:02:03;3.60;;;1.23;;
49678;SDS011;35570;48.218;16.326;2023-06-24T00:04:29;1.63;;;0.90;;
49678;SDS011;35570;48.218;16.326;2023-06-24T00:06:55;2.95;;;0.77;;
49678;SDS011;35570;48.218;16.326;2023-06-24T00:09:24;1.83;;;0.80;;
49678;SDS011;35570;48.218;16.326;2023-06-24T00:11:53;1.27;;;0.80;;
49678;SDS011;35570;48.218;16.326;2023-06-24T00:14:20;3.83;;;1.30;;
49678;SDS011;35570;48.218;16.326;2023-06-24T00:16:47;2.55;;;0.90;;
49678;SDS011;35570;48.218;16.326;2023-06-24T00:19:16;1.52;;;1.13;;
49678;SDS011;35570;48.218;16.326;2023-06-24T00:21:49;1.38;;;1.17;;
49678;SDS011;35570;48.218;16.326;2023-06-24T00:24:21;2.13;;;1.40;;
49678;SDS011;35570;48.218;16.326;2023-06-24T00:26:54;1.25;;;0.80;;
49678;SDS011;35570;48.218;16.326;2023-06-24T00:29:20;1.20;;;0.80;;
49678;SDS011;35570;48.218;16.326;2023-06-24T00:31:46;1.88;;;1.08;;
49678;SDS011;35570;48.218;16.326;2023-06-24T00:34:11;1.50;;;1.05;;
49678;SDS011;35570;48.218;16.326;2023-06-24T00:36:37;2.00;;;0.93;;
49678;SDS011;35570;48.218;16.326;2023-06-24T00:39:03;2.85;;;1.70;;
49678;SDS011;35570;48.218;16.326;2023-06-24T00:41:32;2.85;;;1.15;;
49678;SDS011;35570;48.218;16.326;2023-06-24T00:43:59;1.27;;;0.85;;
49678;SDS011;35570;48.218;16.326;2023-06-24T00:46:25;1.50;;;1.00;;
49678;SDS011;35570;48.218;16.326;2023-06-24T00:48:52;1.17;;;0.77;;
49678;SDS011;35570;48.218;16.326;2023-06-24T00:51:19;1.35;;;0.90;;
49678;SDS011;35570;48.218;16.326;2023-06-24T00:53:46;3.42;;;0.90;;
49678;SDS011;35570;48.218;16.326;2023-06-24T00:56:13;1.20;;;0.82;;
49678;SDS011;35570;48.218;16.326;2023-06-24T00:58:41;1.65;;;1.00;;
49678;SDS011;35570;48.218;16.326;2023-06-24T01:01:09;3.95;;;0.93;;
49678;SDS011;35570;48.218;16.326;2023-06-24T01:03:35;1.85;;;1.15;;
49678;SDS011;35570;48.218;16.326;2023-06-24T01:06:02;1.58;;;0.90;;
49678;SDS011;35570;48.218;16.326;2023-06-24T01:08:28;2.17;;;0.90;;
49678;SDS011;35570;48.218;16.326;2023-06-24T01:10:54;2.72;;;1.33;;
49678;SDS011;35570;48.218;16.326;2023-06-24T01:13:20;1.90;;;1.05;;
49678;SDS011;35570;48.218;16.326;2023-06-24T01:15:47;1.15;;;1.00;;
49678;SDS011;35570;48.218;16.326;2023-06-24T01:18:16;5.18;;;1.23;;
49678;SDS011;35570;48.218;16.326;2023-06-24T01:35:00;1.98;;;1.30;;
49678;SDS011;35570;48.218;16.326;2023-06-24T01:37:37;3.08;;;1.10;;
49678;SDS011;35570;48.218;16.326;2023-06-24T01:40:09;2.28;;;1.00;;
49678;SDS011;35570;48.218;16.326;2023-06-24T01:42:38;2.03;;;1.25;;
49678;SDS011;35570;48.218;16.326;2023-06-24T01:45:06;1.65;;;1.00;;
49678;SDS011;35570;48.218;16.326;2023-06-24T01:47:36;1.88;;;1.38;;
49678;SDS011;35570;48.218;16.326;2023-06-24T01:50:04;2.08;;;1.52;;
49678;SDS011;35570;48.218;16.326;2023-06-24T01:52:33;1.40;;;1.27;;
49678;SDS011;35570;48.218;16.326;2023-06-24T01:55:00;4.13;;;1.40;;
49678;SDS011;35570;48.218;16.326;2023-06-24T01:57:29;2.55;;;1.55;;
49678;SDS011;35570;48.218;16.326;2023-06-24T01:59:58;2.92;;;1.48;;
49678;SDS011;35570;48.218;16.326;2023-06-24T02:02:25;2.80;;;1.30;;
49678;SDS011;35570;48.218;16.326;2023-06-24T02:04:51;3.88;;;1.33;;
49678;SDS011;35570;48.218;16.326;2023-06-24T02:07:19;4.75;;;1.38;;
49678;SDS011;35570;48.218;16.326;2023-06-24T02:09:45;3.53;;;1.52;;
49678;SDS011;35570;48.218;16.326;2023-06-24T02:12:11;2.03;;;1.52;;
49678;SDS011;35570;48.218;16.326;2023-06-24T02:14:37;4.30;;;1.25;;
49678;SDS011;35570;48.218;16.326;2023-06-24T02:17:05;2.75;;;1.60;;
49678;SDS011;35570;48.218;16.326;2023-06-24T02:19:33;1.52;;;1.20;;
49678;SDS011;35570;48.218;16.326;2023-06-24T02:22:00;2.72;;;1.60;;
49678;SDS011;35570;48.218;16.326;2023-06-24T02:24:27;2.50;;;1.50;;
49678;SDS011;35570;48.218;16.326;2023-06-24T02:26:54;2.25;;;1.20;;
49678;SDS011;35570;48.218;16.326;2023-06-24T02:29:24;2.10;;;1.50;;
49678;SDS011;35570;48.218;16.326;2023-06-24T02:31:52;2.28;;;1.35;;
49678;SDS011;35570;48.218;16.326;2023-06-24T02:34:18;1.65;;;1.10;;
49678;SDS011;35570;48.218;16.326;2023-06-24T02:36:44;3.03;;;1.40;;
49678;SDS011;35570;48.218;16.326;2023-06-24T02:39:10;1.13;;;1.02;;
49678;SDS011;35570;48.218;16.326;2023-06-24T02:41:35;1.80;;;1.30;;
49678;SDS011;35570;48.218;16.326;2023-06-24T02:44:01;1.48;;;1.13;;
49678;SDS011;35570;48.218;16.326;2023-06-24T02:46:27;1.58;;;1.48;;
49678;SDS011;35570;48.218;16.326;2023-06-24T02:48:56;1.85;;;1.50;;
49678;SDS011;35570;48.218;16.326;2023-06-24T02:51:23;1.85;;;1.27;;
49678;SDS011;35570;48.218;16.326;2023-06-24T02:53:49;1.58;;;1.17;;
49678;SDS011;35570;48.218;16.326;2023-06-24T02:56:15;2.63;;;1.30;;
49678;SDS011;35570;48.218;16.326;2023-06-24T02:58:45;1.20;;;1.10;;
49678;SDS011;35570;48.218;16.326;2023-06-24T03:01:12;1.73;;;1.38;;
49678;SDS011;35570;48.218;16.326;2023-06-24T03:03:38;1.52;;;1.30;;
49678;SDS011;35570;48.218;16.326;2023-06-24T03:06:06;1.73;;;1.20;;
49678;SDS011;35570;48.218;16.326;2023-06-24T03:08:32;2.05;;;1.33;;
49678;SDS011;35570;48.218;16.326;2023-06-24T03:10:58;1.98;;;1.20;;
49678;SDS011;35570;48.218;16.326;2023-06-24T03:13:24;1.90;;;1.20;;
49678;SDS011;35570;48.218;16.326;2023-06-24T03:15:51;3.00;;;1.30;;
49678;SDS011;35570;48.218;16.326;2023-06-24T03:18:17;2.42;;;1.40;;
49678;SDS011;35570;48.218;16.326;2023-06-24T03:20:43;1.67;;;1.20;;
49678;SDS011;35570;48.218;16.326;2023-06-24T03:23:08;1.10;;;1.00;;
49678;SDS011;35570;48.218;16.326;2023-06-24T03:25:34;2.25;;;1.08;;
49678;SDS011;35570;48.218;16.326;2023-06-24T03:28:00;1.98;;;1.55;;
49678;SDS011;35570;48.218;16.326;2023-06-24T03:30:28;1.35;;;0.90;;
49678;SDS011;35570;48.218;16.326;2023-06-24T03:32:54;1.98;;;1.10;;
49678;SDS011;35570;48.218;16.326;2023-06-24T03:35:20;1.00;;;0.90;;
49678;SDS011;35570;48.218;16.326;2023-06-24T03:37:47;1.30;;;0.80;;
49678;SDS011;35570;48.218;16.326;2023-06-24T03:40:13;1.50;;;0.80;;
49678;SDS011;35570;48.218;16.326;2023-06-24T03:42:39;1.05;;;0.90;;
49678;SDS011;35570;48.218;16.326;2023-06-24T03:45:04;1.15;;;0.75;;
49678;SDS011;35570;48.218;16.326;2023-06-24T03:47:30;1.15;;;0.90;;
49678;SDS011;35570;48.218;16.326;2023-06-24T03:49:56;2.55;;;0.80;;
49678;SDS011;35570;48.218;16.326;2023-06-24T03:52:22;0.77;;;0.70;;
49678;SDS011;35570;48.218;16.326;2023-06-24T03:54:47;1.80;;;0.80;;
49678;SDS011;35570;48.218;16.326;2023-06-24T03:57:13;0.70;;;0.60;;
49678;SDS011;35570;48.218;16.326;2023-06-24T03:59:39;0.95;;;0.75;;
49678;SDS011;35570;48.218;16.326;2023-06-24T04:02:05;1.40;;;0.80;;
49678;SDS011;35570;48.218;16.326;2023-06-24T04:04:33;1.15;;;0.60;;
49678;SDS011;35570;48.218;16.326;2023-06-24T04:07:01;0.90;;;0.60;;
49678;SDS011;35570;48.218;16.326;2023-06-24T04:09:28;0.60;;;0.60;;
49678;SDS011;35570;48.218;16.326;2023-06-24T04:11:54;0.55;;;0.40;;
49678;SDS011;35570;48.218;16.326;2023-06-24T04:14:20;0.50;;;0.40;;
49678;SDS011;35570;48.218;16.326;2023-06-24T04:16:45;1.00;;;0.35;;
49678;SDS011;35570;48.218;16.326;2023-06-24T04:19:11;2.08;;;0.50;;
49678;SDS011;35570;48.218;16.326;2023-06-24T04:21:36;1.77;;;0.80;;
49678;SDS011;35570;48.218;16.326;2023-06-24T04:24:02;0.40;;;0.32;;
49678;SDS011;35570;48.218;16.326;2023-06-24T04:26:28;1.05;;;0.45;;
49678;SDS011;35570;48.218;16.326;2023-06-24T04:28:55;0.93;;;0.50;;
49678;SDS011;35570;48.218;16.326;2023-06-24T04:31:21;0.70;;;0.50;;
49678;SDS011;35570;48.218;16.326;2023-06-24T04:33:47;0.80;;;0.40;;
49678;SDS011;35570;48.218;16.326;2023-06-24T04:36:12;0.73;;;0.30;;
49678;SDS011;35570;48.218;16.326;2023-06-24T04:38:38;0.73;;;0.40;;
49678;SDS011;35570;48.218;16.326;2023-06-24T04:41:03;1.05;;;0.47;;
49678;SDS011;35570;48.218;16.326;2023-06-24T04:43:29;0.50;;;0.25;;
49678;SDS011;35570;48.218;16.326;2023-06-24T04:45:55;2.05;;;0.40;;
49678;SDS011;35570;48.218;16.326;2023-06-24T04:48:26;0.73;;;0.70;;
49678;SDS011;35570;48.218;16.326;2023-06-24T04:50:51;0.65;;;0.40;;
49678;SDS011;35570;48.218;16.326;2023-06-24T04:53:19;0.88;;;0.73;;
49678;SDS011;35570;48.218;16.326;2023-06-24T04:55:45;0.75;;;0.40;;
49678;SDS011;35570;48.218;16.326;2023-06-24T04:58:11;0.98;;;0.43;;
49678;SDS011;35570;48.218;16.326;2023-06-24T05:00:36;0.90;;;0.40;;
49678;SDS011;35570;48.218;16.326;2023-06-24T05:03:02;0.68;;;0.50;;
49678;SDS011;35570;48.218;16.326;2023-06-24T05:05:28;1.02;;;0.30;;
49678;SDS011;35570;48.218;16.326;2023-06-24T05:07:53;1.00;;;0.50;;
49678;SDS011;35570;48.218;16.326;2023-06-24T05:10:19;0.70;;;0.40;;
49678;SDS011;35570;48.218;16.326;2023-06-24T05:12:44;0.77;;;0.50;;
49678;SDS011;35570;48.218;16.326;2023-06-24T05:15:10;0.75;;;0.50;;
49678;SDS011;35570;48.218;16.326;2023-06-24T05:17:36;2.03;;;0.60;;
49678;SDS011;35570;48.218;16.326;2023-06-24T05:20:02;0.68;;;0.30;;
49678;SDS011;35570;48.218;16.326;2023-06-24T05:22:28;0.35;;;0.25;;
49678;SDS011;35570;48.218;16.326;2023-06-24T05:24:54;0.80;;;0.40;;
49678;SDS011;35570;48.218;16.326;2023-06-24T05:27:19;0.35;;;0.30;;
49678;SDS011;35570;48.218;16.326;2023-06-24T05:29:45;0.65;;;0.40;;
49678;SDS011;35570;48.218;16.326;2023-06-24T05:32:11;0.40;;;0.30;;
49678;SDS011;35570;48.218;16.326;2023-06-24T05:34:37;0.45;;;0.22;;
49678;SDS011;35570;48.218;16.326;2023-06-24T05:37:03;0.40;;;0.20;;
49678;SDS011;35570;48.218;16.326;2023-06-24T05:39:30;0.75;;;0.20;;
49678;SDS011;35570;48.218;16.326;2023-06-24T05:41:56;0.28;;;0.20;;
49678;SDS011;35570;48.218;16.326;2023-06-24T05:44:22;0.68;;;0.50;;
49678;SDS011;35570;48.218;16.326;2023-06-24T05:46:48;1.05;;;0.50;;
49678;SDS011;35570;48.218;16.326;2023-06-24T05:49:14;0.50;;;0.40;;
49678;SDS011;35570;48.218;16.326;2023-06-24T05:51:40;0.50;;;0.20;;
49678;SDS011;35570;48.218;16.326;2023-06-24T05:54:05;1.17;;;0.70;;
49678;SDS011;35570;48.218;16.326;2023-06-24T05:56:32;1.20;;;0.43;;
49678;SDS011;35570;48.218;16.326;2023-06-24T05:58:58;0.50;;;0.38;;
49678;SDS011;35570;48.218;16.326;2023-06-24T06:01:24;0.45;;;0.17;;
49678;SDS011;35570;48.218;16.326;2023-06-24T06:03:49;0.82;;;0.25;;
49678;SDS011;35570;48.218;16.326;2023-06-24T06:06:15;0.30;;;0.20;;
49678;SDS011;35570;48.218;16.326;2023-06-24T06:08:40;2.88;;;0.40;;
49678;SDS011;35570;48.218;16.326;2023-06-24T06:11:06;0.32;;;0.15;;
49678;SDS011;35570;48.218;16.326;2023-06-24T06:13:32;0.50;;;0.30;;
49678;SDS011;35570;48.218;16.326;2023-06-24T06:15:58;1.45;;;0.20;;
49678;SDS011;35570;48.218;16.326;2023-06-24T06:18:24;0.90;;;0.20;;
49678;SDS011;35570;48.218;16.326;2023-06-24T06:20:50;0.50;;;0.40;;
49678;SDS011;35570;48.218;16.326;2023-06-24T06:23:16;0.52;;;0.30;;
49678;SDS011;35570;48.218;16.326;2023-06-24T06:25:42;2.05;;;1.35;;
49678;SDS011;35570;48.218;16.326;2023-06-24T06:28:08;0.75;;;0.60;;
49678;SDS011;35570;48.218;16.326;2023-06-24T06:30:34;0.50;;;0.40;;
49678;SDS011;35570;48.218;16.326;2023-06-24T06:33:00;1.55;;;0.90;;
49678;SDS011;35570;48.218;16.326;2023-06-24T06:35:25;1.20;;;0.68;;
49678;SDS011;35570;48.218;16.326;2023-06-24T06:37:51;1.60;;;0.60;;
49678;SDS011;35570;48.218;16.326;2023-06-24T06:40:21;2.38;;;0.90;;
49678;SDS011;35570;48.218;16.326;2023-06-24T06:42:47;1.67;;;0.95;;
49678;SDS011;35570;48.218;16.326;2023-06-24T06:45:12;3.50;;;0.75;;
49678;SDS011;35570;48.218;16.326;2023-06-24T06:47:38;0.55;;;0.35;;
49678;SDS011;35570;48.218;16.326;2023-06-24T06:50:04;2.88;;;0.50;;
49678;SDS011;35570;48.218;16.326;2023-06-24T06:52:30;2.03;;;0.90;;
49678;SDS011;35570;48.218;16.326;2023-06-24T06:54:56;0.50;;;0.40;;
49678;SDS011;35570;48.218;16.326;2023-06-24T06:57:21;0.40;;;0.20;;
49678;SDS011;35570;48.218;16.326;2023-06-24T06:59:47;1.02;;;0.57;;
49678;SDS011;35570;48.218;16.326;2023-06-24T07:02:16;0.75;;;0.60;;
49678;SDS011;35570;48.218;16.326;2023-06-24T07:04:44;1.38;;;0.40;;
49678;SDS011;35570;48.218;16.326;2023-06-24T07:07:10;0.90;;;0.65;;
49678;SDS011;35570;48.218;16.326;2023-06-24T07:09:37;0.57;;;0.47;;
49678;SDS011;35570;48.218;16.326;2023-06-24T07:12:02;0.88;;;0.70;;
49678;SDS011;35570;48.218;16.326;2023-06-24T07:14:28;0.93;;;0.80;;
49678;SDS011;35570;48.218;16.326;2023-06-24T07:16:54;1.02;;;0.70;;
49678;SDS011;35570;48.218;16.326;2023-06-24T07:19:19;1.17;;;0.73;;
49678;SDS011;35570;48.218;16.326;2023-06-24T07:21:45;2.28;;;0.80;;
49678;SDS011;35570;48.218;16.326;2023-06-24T07:24:11;0.77;;;0.77;;
49678;SDS011;35570;48.218;16.326;2023-06-24T07:26:36;1.30;;;0.80;;
49678;SDS011;35570;48.218;16.326;2023-06-24T07:29:02;0.95;;;0.70;;
49678;SDS011;35570;48.218;16.326;2023-06-24T07:31:31;1.40;;;0.80;;
49678;SDS011;35570;48.218;16.326;2023-06-24T07:33:56;1.00;;;0.90;;
49678;SDS011;35570;48.218;16.326;2023-06-24T07:36:22;1.23;;;0.90;;
49678;SDS011;35570;48.218;16.326;2023-06-24T07:38:47;1.15;;;0.90;;
49678;SDS011;35570;48.218;16.326;2023-06-24T07:41:13;2.30;;;0.88;;
49678;SDS011;35570;48.218;16.326;2023-06-24T07:43:39;0.93;;;0.82;;
49678;SDS011;35570;48.218;16.326;2023-06-24T07:46:04;1.27;;;1.00;;
49678;SDS011;35570;48.218;16.326;2023-06-24T07:48:30;1.77;;;1.15;;
49678;SDS011;35570;48.218;16.326;2023-06-24T07:50:56;1.90;;;1.70;;
49678;SDS011;35570;48.218;16.326;2023-06-24T07:53:22;1.63;;;1.40;;
49678;SDS011;35570;48.218;16.326;2023-06-24T07:55:48;1.30;;;1.08;;
49678;SDS011;35570;48.218;16.326;2023-06-24T07:58:13;1.40;;;1.30;;
49678;SDS011;35570;48.218;16.326;2023-06-24T08:00:39;1.70;;;1.20;;
49678;SDS011;35570;48.218;16.326;2023-06-24T08:03:05;1.38;;;1.27;;
49678;SDS011;35570;48.218;16.326;2023-06-24T08:05:30;1.40;;;1.15;;
49678;SDS011;35570;48.218;16.326;2023-06-24T08:07:56;1.77;;;1.50;;
49678;SDS011;35570;48.218;16.326;2023-06-24T08:10:21;1.77;;;1.42;;
49678;SDS011;35570;48.218;16.326;2023-06-24T08:12:47;4.47;;;1.60;;
49678;SDS011;35570;48.218;16.326;2023-06-24T08:15:13;2.80;;;1.70;;
49678;SDS011;35570;48.218;16.326;2023-06-24T08:17:38;1.30;;;1.20;;
49678;SDS011;35570;48.218;16.326;2023-06-24T08:20:05;2.50;;;2.00;;
49678;SDS011;35570;48.218;16.326;2023-06-24T08:22:31;2.38;;;2.03;;
49678;SDS011;35570;48.218;16.326;2023-06-24T08:24:57;1.70;;;1.60;;
49678;SDS011;35570;48.218;16.326;2023-06-24T08:27:23;2.10;;;1.85;;
49678;SDS011;35570;48.218;16.326;2023-06-24T08:29:49;1.80;;;1.70;;
49678;SDS011;35570;48.218;16.326;2023-06-24T08:32:14;1.98;;;1.60;;
49678;SDS011;35570;48.218;16.326;2023-06-24T08:34:40;2.10;;;1.90;;
49678;SDS011;35570;48.218;16.326;2023-06-24T08:37:06;3.08;;;2.75;;
49678;SDS011;35570;48.218;16.326;2023-06-24T08:39:31;2.90;;;2.20;;
49678;SDS011;35570;48.218;16.326;2023-06-24T08:41:57;2.83;;;2.20;;
49678;SDS011;35570;48.218;16.326;2023-06-24T08:44:23;2.97;;;2.58;;
49678;SDS011;35570;48.218;16.326;2023-06-24T08:46:48;2.10;;;1.90;;
49678;SDS011;35570;48.218;16.326;2023-06-24T08:51:46;2.53;;;2.33;;
49678;SDS011;35570;48.218;16.326;2023-06-24T08:54:20;3.50;;;2.50;;
49678;SDS011;35570;48.218;16.326;2023-06-24T08:56:47;3.13;;;2.42;;
49678;SDS011;35570;48.218;16.326;2023-06-24T08:59:13;2.92;;;2.55;;
49678;SDS011;35570;48.218;16.326;2023-06-24T09:01:44;3.80;;;3.40;;
49678;SDS011;35570;48.218;16.326;2023-06-24T09:04:11;4.22;;;3.70;;
49678;SDS011;35570;48.218;16.326;2023-06-24T09:06:36;3.00;;;2.58;;
49678;SDS011;35570;48.218;16.326;2023-06-24T09:09:02;3.63;;;2.50;;
49678;SDS011;35570;48.218;16.326;2023-06-24T09:11:28;3.30;;;2.67;;
49678;SDS011;35570;48.218;16.326;2023-06-24T09:13:57;3.10;;;2.80;;
49678;SDS011;35570;48.218;16.326;2023-06-24T09:16:24;2.78;;;2.50;;
49678;SDS011;35570;48.218;16.326;2023-06-24T09:18:50;3.45;;;2.58;;
49678;SDS011;35570;48.218;16.326;2023-06-24T09:21:23;2.72;;;2.28;;
49678;SDS011;35570;48.218;16.326;2023-06-24T09:23:57;2.67;;;2.47;;
49678;SDS011;35570;48.218;16.326;2023-06-24T09:26:31;2.00;;;1.80;;
49678;SDS011;35570;48.218;16.326;2023-06-24T09:28:57;4.32;;;2.38;;
49678;SDS011;35570;48.218;16.326;2023-06-24T09:31:23;11.57;;;8.50;;
49678;SDS011;35570;48.218;16.326;2023-06-24T09:33:49;7.88;;;5.10;;
49678;SDS011;35570;48.218;16.326;2023-06-24T09:36:17;2.95;;;2.35;;
49678;SDS011;35570;48.218;16.326;2023-06-24T09:38:43;6.18;;;4.75;;
49678;SDS011;35570;48.218;16.326;2023-06-24T09:41:09;5.80;;;4.10;;
49678;SDS011;35570;48.218;16.326;2023-06-24T09:43:35;3.35;;;3.05;;
49678;SDS011;35570;48.218;16.326;2023-06-24T09:46:02;2.63;;;2.42;;
49678;SDS011;35570;48.218;16.326;2023-06-24T09:48:29;2.30;;;1.63;;
49678;SDS011;35570;48.218;16.326;2023-06-24T09:50:59;2.53;;;1.27;;
49678;SDS011;35570;48.218;16.326;2023-06-24T09:53:27;2.80;;;1.80;;
49678;SDS011;35570;48.218;16.326;2023-06-24T09:55:55;2.40;;;2.20;;
49678;SDS011;35570;48.218;16.326;2023-06-24T09:58:22;2.33;;;2.10;;
49678;SDS011;35570;48.218;16.326;2023-06-24T10:00:49;2.78;;;2.50;;
49678;SDS011;35570;48.218;16.326;2023-06-24T10:03:17;2.97;;;2.45;;
49678;SDS011;35570;48.218;16.326;2023-06-24T10:05:43;3.92;;;3.42;;
49678;SDS011;35570;48.218;16.326;2023-06-24T10:08:09;2.33;;;2.13;;
49678;SDS011;35570;48.218;16.326;2023-06-24T10:10:36;3.05;;;2.40;;
49678;SDS011;35570;48.218;16.326;2023-06-24T10:13:01;5.43;;;3.10;;
49678;SDS011;35570;48.218;16.326;2023-06-24T10:15:27;2.60;;;2.40;;
49678;SDS011;35570;48.218;16.326;2023-06-24T10:17:53;3.00;;;2.70;;
49678;SDS011;35570;48.218;16.326;2023-06-24T10:20:25;5.18;;;3.55;;
49678;SDS011;35570;48.218;16.326;2023-06-24T10:22:51;3.83;;;3.00;;
49678;SDS011;35570;48.218;16.326;2023-06-24T10:25:17;3.35;;;2.75;;
49678;SDS011;35570;48.218;16.326;2023-06-24T10:27:43;3.05;;;2.75;;
49678;SDS011;35570;48.218;16.326;2023-06-24T10:30:16;3.63;;;3.28;;
49678;SDS011;35570;48.218;16.326;2023-06-24T10:32:50;3.30;;;2.92;;
49678;SDS011;35570;48.218;16.326;2023-06-24T10:35:24;3.10;;;2.80;;
49678;SDS011;35570;48.218;16.326;2023-06-24T10:37:57;3.97;;;2.97;;
49678;SDS011;35570;48.218;16.326;2023-06-24T10:40:40;3.15;;;2.65;;
49678;SDS011;35570;48.218;16.326;2023-06-24T10:45:57;2.83;;;2.63;;
49678;SDS011;35570;48.218;16.326;2023-06-24T10:48:24;4.53;;;2.97;;
49678;SDS011;35570;48.218;16.326;2023-06-24T10:50:50;4.28;;;3.20;;
49678;SDS011;35570;48.218;16.326;2023-06-24T10:53:16;5.00;;;3.30;;
49678;SDS011;35570;48.218;16.326;2023-06-24T10:55:43;3.33;;;3.03;;
49678;SDS011;35570;48.218;16.326;2023-06-24T10:58:11;4.13;;;3.13;;
49678;SDS011;35570;48.218;16.326;2023-06-24T11:00:38;4.63;;;3.38;;
49678;SDS011;35570;48.218;16.326;2023-06-24T11:03:08;4.22;;;3.40;;
49678;SDS011;35570;48.218;16.326;2023-06-24T11:05:41;4.05;;;3.65;;
49678;SDS011;35570;48.218;16.326;2023-06-24T11:08:08;4.60;;;3.72;;
49678;SDS011;35570;48.218;16.326;2023-06-24T11:10:41;4.10;;;3.53;;
49678;SDS011;35570;48.218;16.326;2023-06-24T11:13:08;4.07;;;3.75;;
49678;SDS011;35570;48.218;16.326;2023-06-24T11:15:34;5.57;;;5.00;;
49678;SDS011;35570;48.218;16.326;2023-06-24T11:18:01;5.47;;;4.97;;
49678;SDS011;35570;48.218;16.326;2023-06-24T11:20:35;6.10;;;5.50;;
49678;SDS011;35570;48.218;16.326;2023-06-24T11:23:07;10.75;;;9.25;;
49678;SDS011;35570;48.218;16.326;2023-06-24T11:25:39;8.15;;;6.03;;
49678;SDS011;35570;48.218;16.326;2023-06-24T11:28:17;7.53;;;6.53;;
49678;SDS011;35570;48.218;16.326;2023-06-24T11:30:43;7.60;;;5.93;;
49678;SDS011;35570;48.218;16.326;2023-06-24T11:33:09;5.97;;;5.40;;
49678;SDS011;35570;48.218;16.326;2023-06-24T11:35:35;5.30;;;4.80;;
49678;SDS011;35570;48.218;16.326;2023-06-24T11:38:02;6.30;;;4.72;;
49678;SDS011;35570;48.218;16.326;2023-06-24T11:40:27;6.10;;;5.50;;
49678;SDS011;35570;48.218;16.326;2023-06-24T11:42:59;5.93;;;5.00;;
49678;SDS011;35570;48.218;16.326;2023-06-24T11:45:25;5.75;;;4.78;;
49678;SDS011;35570;48.218;16.326;2023-06-24T11:47:51;6.78;;;5.50;;
49678;SDS011;35570;48.218;16.326;2023-06-24T11:50:17;7.63;;;5.85;;
49678;SDS011;35570;48.218;16.326;2023-06-24T11:52:50;5.47;;;4.97;;
49678;SDS011;35570;48.218;16.326;2023-06-24T12:00:25;4.53;;;4.13;;
49678;SDS011;35570;48.218;16.326;2023-06-24T12:02:53;5.32;;;4.22;;
49678;SDS011;35570;48.218;16.326;2023-06-24T12:05:20;6.47;;;5.15;;
49678;SDS011;35570;48.218;16.326;2023-06-24T12:07:51;5.88;;;5.32;;
49678;SDS011;35570;48.218;16.326;2023-06-24T12:10:18;6.90;;;5.88;;
49678;SDS011;35570;48.218;16.326;2023-06-24T12:12:44;6.15;;;5.07;;
49678;SDS011;35570;48.218;16.326;2023-06-24T12:15:09;5.05;;;4.45;;
49678;SDS011;35570;48.218;16.326;2023-06-24T12:17:35;4.95;;;4.55;;
49678;SDS011;35570;48.218;16.326;2023-06-24T12:20:01;6.90;;;4.32;;
49678;SDS011;35570;48.218;16.326;2023-06-24T12:22:27;5.85;;;5.15;;
49678;SDS011;35570;48.218;16.326;2023-06-24T12:24:52;6.05;;;4.72;;
49678;SDS011;35570;48.218;16.326;2023-06-24T12:27:18;5.57;;;5.07;;
49678;SDS011;35570;48.218;16.326;2023-06-24T12:29:44;5.78;;;5.28;;
49678;SDS011;35570;48.218;16.326;2023-06-24T12:32:09;7.07;;;5.38;;
49678;SDS011;35570;48.218;16.326;2023-06-24T12:34:35;7.18;;;5.65;;
49678;SDS011;35570;48.218;16.326;2023-06-24T12:37:00;5.45;;;4.93;;
49678;SDS011;35570;48.218;16.326;2023-06-24T12:39:26;6.00;;;5.03;;
49678;SDS011;35570;48.218;16.326;2023-06-24T12:41:51;5.43;;;4.93;;
49678;SDS011;35570;48.218;16.326;2023-06-24T12:44:17;5.82;;;5.07;;
49678;SDS011;35570;48.218;16.326;2023-06-24T12:46:43;6.65;;;5.22;;
49678;SDS011;35570;48.218;16.326;2023-06-24T12:49:08;6.32;;;5.40;;
49678;SDS011;35570;48.218;16.326;2023-06-24T12:51:34;6.15;;;5.28;;
49678;SDS011;35570;48.218;16.326;2023-06-24T12:54:00;8.93;;;5.18;;
49678;SDS011;35570;48.218;16.326;2023-06-24T12:56:25;6.53;;;4.80;;
49678;SDS011;35570;48.218;16.326;2023-06-24T12:58:51;5.88;;;5.28;;
49678;SDS011;35570;48.218;16.326;2023-06-24T13:01:16;6.25;;;5.65;;
49678;SDS011;35570;48.218;16.326;2023-06-24T13:03:42;6.10;;;5.50;;
49678;SDS011;35570;48.218;16.326;2023-06-24T13:06:08;5.70;;;5.20;;
49678;SDS011;35570;48.218;16.326;2023-06-24T13:08:34;6.07;;;5.50;;
49678;SDS011;35570;48.218;16.326;2023-06-24T13:10:59;6.38;;;5.43;;
49678;SDS011;35570;48.218;16.326;2023-06-24T13:13:25;6.38;;;5.78;;
49678;SDS011;35570;48.218;16.326;2023-06-24T13:15:51;6.53;;;5.90;;
49678;SDS011;35570;48.218;16.326;2023-06-24T13:18:17;6.78;;;6.03;;
49678;SDS011;35570;48.218;16.326;2023-06-24T13:20:44;6.90;;;5.88;;
49678;SDS011;35570;48.218;16.326;2023-06-24T13:23:10;6.57;;;5.97;;
49678;SDS011;35570;48.218;16.326;2023-06-24T13:25:36;6.57;;;5.97;;
49678;SDS011;35570;48.218;16.326;2023-06-24T13:28:02;6.90;;;6.20;;
49678;SDS011;35570;48.218;16.326;2023-06-24T13:30:28;7.45;;;6.70;;
49678;SDS011;35570;48.218;16.326;2023-06-24T13:32:54;7.25;;;6.47;;
49678;SDS011;35570;48.218;16.326;2023-06-24T13:35:19;7.20;;;6.50;;
49678;SDS011;35570;48.218;16.326;2023-06-24T13:37:45;7.47;;;6.10;;
49678;SDS011;35570;48.218;16.326;2023-06-24T13:40:11;7.22;;;6.22;;
49678;SDS011;35570;48.218;16.326;2023-06-24T13:42:36;8.18;;;5.78;;
49678;SDS011;35570;48.218;16.326;2023-06-24T13:45:02;7.03;;;5.70;;
49678;SDS011;35570;48.218;16.326;2023-06-24T13:47:29;7.53;;;6.20;;
49678;SDS011;35570;48.218;16.326;2023-06-24T13:49:55;6.75;;;6.00;;
49678;SDS011;35570;48.218;16.326;2023-06-24T13:52:20;7.63;;;5.70;;
49678;SDS011;35570;48.218;16.326;2023-06-24T13:54:46;7.35;;;5.90;;
49678;SDS011;35570;48.218;16.326;2023-06-24T13:57:12;6.95;;;5.53;;
49678;SDS011;35570;48.218;16.326;2023-06-24T13:59:38;8.50;;;6.15;;
49678;SDS011;35570;48.218;16.326;2023-06-24T14:02:03;8.52;;;6.38;;
49678;SDS011;35570;48.218;16.326;2023-06-24T14:04:30;8.48;;;5.80;;
49678;SDS011;35570;48.218;16.326;2023-06-24T14:06:55;6.00;;;5.40;;
49678;SDS011;35570;48.218;16.326;2023-06-24T14:09:21;6.25;;;5.60;;
49678;SDS011;35570;48.218;16.326;2023-06-24T14:11:48;7.20;;;6.47;;
49678;SDS011;35570;48.218;16.326;2023-06-24T14:14:14;6.70;;;6.00;;
49678;SDS011;35570;48.218;16.326;2023-06-24T14:16:39;6.47;;;5.57;;
49678;SDS011;35570;48.218;16.326;2023-06-24T14:19:05;6.68;;;6.00;;
49678;SDS011;35570;48.218;16.326;2023-06-24T14:21:30;7.95;;;6.25;;
49678;SDS011;35570;48.218;16.326;2023-06-24T14:23:57;6.00;;;5.40;;
49678;SDS011;35570;48.218;16.326;2023-06-24T14:26:22;6.28;;;5.68;;
49678;SDS011;35570;48.218;16.326;2023-06-24T14:28:48;7.47;;;5.70;;
49678;SDS011;35570;48.218;16.326;2023-06-24T14:31:14;6.07;;;5.32;;
49678;SDS011;35570;48.218;16.326;2023-06-24T14:33:40;6.60;;;5.70;;
49678;SDS011;35570;48.218;16.326;2023-06-24T14:36:05;6.03;;;5.10;;
49678;SDS011;35570;48.218;16.326;2023-06-24T14:38:31;7.03;;;5.25;;
49678;SDS011;35570;48.218;16.326;2023-06-24T14:40:56;6.90;;;5.75;;
49678;SDS011;35570;48.218;16.326;2023-06-24T14:43:22;6.65;;;6.05;;
49678;SDS011;35570;48.218;16.326;2023-06-24T14:45:48;8.18;;;6.20;;
49678;SDS011;35570;48.218;16.326;2023-06-24T14:48:13;5.95;;;5.38;;
49678;SDS011;35570;48.218;16.326;2023-06-24T14:50:39;6.20;;;5.43;;
49678;SDS011;35570;48.218;16.326;2023-06-24T14:53:05;8.32;;;5.65;;
49678;SDS011;35570;48.218;16.326;2023-06-24T14:55:31;6.45;;;5.85;;